M I D A S
Marine Information and Data Acquisition System
Tripno 734 of the Zeeleeuw from 2004-06-11 06:30:01 to 2004-06-11 14:35:07
Back to CruiseResearch ActivitiesStationsMapUnderway DataData graphs

EquipmentUnitsComment
TimeDGPSUTC
LatitudeDGPSDM.mWGS84
LongitudeDGPSDM.mWGS84
TemperatureSBE03/SBE38deg celciusITS90
ConductivitySBE21S/mITS90
SalinitySBE21 Practical Salinity Units
ChlorophylAChelsea fluorimeterg/lCalibrated in Aceton
Missing or incorrect values are displayed as -999
Sea surface data collected by the RV Zeeleeuw from 2004-06-11 06:30:01 to 2004-06-11 14:35:07
Time Latitude Longitude Temperature Conductivity Salinity ChlorophylA
2004-06-11 06:31:04 51°14.187 2°55.373 18.563068 3.382838 24.495222 13.814922
2004-06-11 06:32:04 51°14.321 2°55.157 18.38341 3.444777 25.035196 14.48911
2004-06-11 06:33:03 51°14.454 2°54.909 18.093508 3.70197 27.259987 14.691366
2004-06-11 06:34:04 51°14.506 2°54.615 17.895408 4.029467 30.142704 14.4554
2004-06-11 06:35:03 51°14.529 2°54.32 17.844136 4.158205 31.27321 15.095879
2004-06-11 06:36:03 51°14.544 2°54.017 17.831155 4.211562 31.767937 15.63523
2004-06-11 06:37:04 51°14.556 2°53.714 17.788273 4.206289 31.735936 16.309418
2004-06-11 06:38:03 51°14.555 2°53.423 17.76396 4.244569 32.098367 15.298136
2004-06-11 06:39:03 51°14.625 2°53.264 17.728812 4.245202 32.109416 17.219571
2004-06-11 06:40:04 51°14.688 2°53.265 17.725425 4.248893 32.174907 15.399264
2004-06-11 06:41:04 51°14.735 2°53.291 17.73713 4.247417 32.158417 16.073452
2004-06-11 06:42:04 51°14.771 2°53.315 17.731445 4.251002 32.191022 15.702648
2004-06-11 06:43:03 51°14.8 2°53.343 17.726638 4.197433 31.739084 16.039742
2004-06-11 06:44:03 51°14.826 2°53.374 17.727098 4.230755 32.023873 16.410546
2004-06-11 06:45:03 51°14.85 2°53.405 17.725384 4.252795 32.209621 16.343127
2004-06-11 06:46:03 51°14.873 2°53.439 17.733326 4.253006 32.210831 16.275708
2004-06-11 06:47:03 51°14.895 2°53.474 17.748666 4.25058 32.187455 16.208289
2004-06-11 06:48:03 51°14.934 2°53.473 17.757274 4.248049 32.144891 16.039742
2004-06-11 06:49:04 51°14.931 2°53.295 17.738175 4.247628 32.156767 16.410546
2004-06-11 06:50:03 51°14.912 2°53.042 17.725509 4.244886 32.137022 16.882477
2004-06-11 06:51:03 51°14.898 2°52.77 17.72576 4.240562 32.109047 17.522956
2004-06-11 06:52:03 51°14.883 2°52.499 17.707028 4.236133 32.069324 17.455537
2004-06-11 06:53:03 51°14.868 2°52.226 17.688836 4.240036 32.130328 17.28699
2004-06-11 06:54:04 51°14.854 2°51.947 17.678629 4.247101 32.194705 16.882477
2004-06-11 06:55:03 51°14.841 2°51.677 17.660721 4.253745 32.26072 16.579093
2004-06-11 06:56:04 51°14.809 2°51.516 17.656788 4.258174 32.309755 17.084734
2004-06-11 06:57:04 51°14.772 2°51.472 17.648627 4.269247 32.407073 16.545383
2004-06-11 06:58:04 51°14.746 2°51.451 17.656411 4.264185 32.363583 16.477965
2004-06-11 06:59:03 51°14.727 2°51.41 17.664278 4.255538 32.282235 16.646512
2004-06-11 07:00:03 51°14.719 2°51.341 17.673399 4.259756 32.319125 16.74764
2004-06-11 07:01:04 51°14.696 2°51.275 17.669634 4.26176 32.330914 16.579093
2004-06-11 07:02:03 51°14.672 2°51.225 17.676914 4.265872 32.361146 16.275708
2004-06-11 07:03:03 51°14.655 2°51.172 17.680804 4.267981 32.377285 16.74764
2004-06-11 07:04:03 51°14.646 2°51.112 17.683105 4.27125 32.39921 16.74764
2004-06-11 07:05:03 51°14.637 2°51.051 17.695988 4.271356 32.400103 16.680221
2004-06-11 07:06:03 51°14.626 2°50.996 17.692475 4.263763 32.331173 16.511674
2004-06-11 07:07:03 51°14.615 2°50.939 17.695444 4.278316 32.449248 16.680221
2004-06-11 07:08:03 51°14.606 2°50.885 17.699417 4.27916 32.456974 17.118443
2004-06-11 07:09:03 51°14.595 2°50.833 17.698372 4.28053 32.467433 17.253281
2004-06-11 07:10:05 51°14.58 2°50.782 17.705607 4.282323 32.479151 16.781349
2004-06-11 07:11:03 51°14.57 2°50.731 17.703683 4.283483 32.486085 16.916187
2004-06-11 07:12:03 51°14.562 2°50.676 17.697033 4.284221 32.495234 16.949896
2004-06-11 07:13:03 51°14.554 2°50.623 17.700714 4.285171 32.505013 16.882477
2004-06-11 07:14:03 51°14.543 2°50.571 17.702805 4.285909 32.509531 16.848768
2004-06-11 07:15:03 51°14.532 2°50.519 17.705105 4.288018 32.526824 16.477965
2004-06-11 07:16:03 51°14.519 2°50.467 17.698246 4.290127 32.547597 16.309418
2004-06-11 07:17:03 51°14.503 2°50.414 17.695026 4.292025 32.566007 16.545383
2004-06-11 07:18:05 51°14.485 2°50.361 17.699334 4.294451 32.584827 16.17458
2004-06-11 07:19:05 51°14.468 2°50.312 17.695904 4.297298 32.608966 15.668939
2004-06-11 07:20:03 51°14.451 2°50.263 17.688334 4.299724 32.634765 15.702648
2004-06-11 07:21:03 51°14.433 2°50.211 17.682603 4.298775 32.633695 16.343127
2004-06-11 07:22:03 51°14.415 2°50.161 17.673776 4.302783 32.672348 16.612802
2004-06-11 07:23:03 51°14.395 2°50.111 17.66499 4.305525 32.700277 16.17458
2004-06-11 07:24:03 51°14.378 2°50.058 17.657374 4.308689 32.731798 15.938614
2004-06-11 07:25:03 51°14.361 2°50.005 17.658797 4.311009 32.755583 15.871195
2004-06-11 07:26:03 51°14.342 2°49.955 17.642726 4.312802 32.774899 16.006033
2004-06-11 07:27:03 51°14.324 2°49.906 17.635526 4.314806 32.800695 16.140871
2004-06-11 07:28:03 51°14.305 2°49.86 17.63067 4.315755 32.816373 16.444255
2004-06-11 07:29:04 51°14.286 2°49.811 17.61878 4.316704 32.828541 16.848768
2004-06-11 07:30:03 51°14.267 2°49.764 17.610992 4.319341 32.860338 16.848768
2004-06-11 07:31:03 51°14.247 2°49.722 17.602532 4.321872 32.886559 16.17458
2004-06-11 07:32:03 51°14.23 2°49.674 17.592522 4.323771 32.910935 15.736358
2004-06-11 07:33:05 51°14.218 2°49.621 17.586784 4.32588 32.936532 15.567811
2004-06-11 07:34:04 51°14.207 2°49.567 17.575472 4.327146 32.951425 15.567811
2004-06-11 07:35:03 51°14.201 2°49.51 17.568014 4.327673 32.966524 15.63523
2004-06-11 07:36:03 51°14.21 2°49.454 17.561855 4.328833 32.979351 15.500392
2004-06-11 07:37:02 51°14.232 2°49.431 17.554018 4.32915 32.987946 15.534101
2004-06-11 07:38:03 51°14.261 2°49.418 17.54945 4.32915 32.995621 15.500392
2004-06-11 07:39:03 51°14.34 2°49.476 17.539641 4.329361 32.996237 15.432973
2004-06-11 07:40:05 51°14.372 2°49.607 17.513102 4.324193 32.974644 15.095879
2004-06-11 07:41:05 51°14.39 2°49.711 17.519098 4.324088 32.980243 14.927332
2004-06-11 07:42:03 51°14.403 2°49.802 17.532054 4.324721 32.979138 14.961042
2004-06-11 07:43:03 51°14.417 2°49.89 17.534569 4.325037 32.978882 15.163298
2004-06-11 07:44:05 51°14.437 2°49.973 17.545174 4.324404 32.964634 15.298136
2004-06-11 07:45:03 51°14.459 2°50.05 17.561561 4.325037 32.958225 15.399264
2004-06-11 07:46:05 51°14.483 2°50.133 17.575053 4.325142 32.947331 15.264426
2004-06-11 07:47:03 51°14.506 2°50.21 17.583851 4.324615 32.935772 15.298136
2004-06-11 07:48:03 51°14.53 2°50.289 17.590721 4.323982 32.922144 15.331845
2004-06-11 07:49:03 51°14.555 2°50.367 17.594826 4.323454 32.915303 15.466683
2004-06-11 07:50:03 51°14.579 2°50.446 17.597842 4.322716 32.90608 15.60152
2004-06-11 07:51:03 51°14.6 2°50.526 17.606385 4.319974 32.875702 15.702648
2004-06-11 07:52:05 51°14.623 2°50.611 17.616435 4.318919 32.8591 15.803777
2004-06-11 07:53:03 51°14.644 2°50.69 17.632052 4.317337 32.839783 15.871195
2004-06-11 07:54:02 51°14.661 2°50.771 17.645697 4.314489 32.800349 15.803777
2004-06-11 07:55:03 51°14.681 2°50.853 17.65616 4.311325 32.764699 15.837486
2004-06-11 07:56:03 51°14.706 2°50.928 17.665366 4.309005 32.738571 15.871195
2004-06-11 07:57:02 51°14.737 2°50.988 17.67386 4.306368 32.707437 15.972324
2004-06-11 07:58:04 51°14.769 2°51.039 17.679465 4.30447 32.685499 16.073452
2004-06-11 07:59:03 51°14.798 2°51.078 17.684234 4.302677 32.667958 16.107161
2004-06-11 08:00:03 51°14.824 2°51.108 17.676244 4.303943 32.678694 16.140871
2004-06-11 08:01:03 51°14.846 2°51.136 17.67386 4.30447 32.688996 16.343127
2004-06-11 08:02:04 51°14.868 2°51.166 17.668755 4.303943 32.68627 16.71393
2004-06-11 08:03:04 51°14.889 2°51.197 17.683481 4.304259 32.683709 16.545383
2004-06-11 08:04:03 51°14.909 2°51.227 17.707447 4.304681 32.673308 16.309418
2004-06-11 08:05:03 51°14.934 2°51.25 17.711377 4.307422 32.679676 15.871195
2004-06-11 08:06:05 51°14.963 2°51.263 17.686242 4.305313 32.671688 16.17458
2004-06-11 08:07:03 51°14.993 2°51.273 17.67729 4.302044 32.656769 16.815059
2004-06-11 08:08:04 51°15.027 2°51.284 17.669885 4.301412 32.661299 16.579093
2004-06-11 08:09:05 51°15.061 2°51.292 17.674362 4.302572 32.672306 16.140871
2004-06-11 08:10:04 51°15.092 2°51.296 17.669048 4.305208 32.696426 15.972324
2004-06-11 08:11:05 51°15.12 2°51.297 17.652352 4.309532 32.740128 15.837486
2004-06-11 08:12:04 51°15.147 2°51.3 17.633433 4.312485 32.780986 16.140871
2004-06-11 08:13:03 51°15.173 2°51.302 17.622255 4.313435 32.798415 16.006033
2004-06-11 08:14:03 51°15.201 2°51.234 17.61162 4.314806 32.818854 15.837486
2004-06-11 08:15:03 51°15.131 2°51.015 17.59625 4.313119 32.813303 15.972324
2004-06-11 08:16:05 51°15.009 2°50.737 17.571743 4.30753 32.784532 16.17458
2004-06-11 08:17:05 51°14.887 2°50.467 17.562986 4.307741 32.791016 16.275708
2004-06-11 08:18:03 51°14.769 2°50.204 17.561645 4.310483 32.828429 16.343127
2004-06-11 08:19:03 51°14.664 2°49.915 17.535994 4.313119 32.852633 16.17458
2004-06-11 08:20:04 51°14.589 2°49.594 17.524256 4.318709 32.919654 16.343127
2004-06-11 08:21:05 51°14.52 2°49.267 17.499765 4.32451 32.985612 16.343127
2004-06-11 08:22:04 51°14.457 2°48.95 17.450339 4.334951 33.091837 16.410546
2004-06-11 08:23:05 51°14.393 2°48.623 17.399114 4.354252 33.304372 16.781349
2004-06-11 08:24:04 51°14.328 2°48.308 17.34827 4.362796 33.421874 16.646512
2004-06-11 08:25:04 51°14.265 2°47.988 17.305465 4.368703 33.512274 16.208289
2004-06-11 08:26:04 51°14.202 2°47.664 17.299156 4.365855 33.508976 16.17458
2004-06-11 08:27:06 51°14.137 2°47.331 17.282076 4.364484 33.505666 15.938614
2004-06-11 08:28:04 51°14.076 2°47.021 17.277279 4.364906 33.515937 15.736358
2004-06-11 08:29:03 51°14.015 2°46.707 17.250175 4.362481 33.51385 15.500392
2004-06-11 08:30:04 51°13.951 2°46.382 17.225545 4.363958 33.556827 15.466683
2004-06-11 08:31:04 51°13.89 2°46.063 17.240872 4.358685 33.507243 15.432973
2004-06-11 08:32:04 51°13.79 2°45.774 17.224282 4.351513 33.446202 15.331845
2004-06-11 08:33:04 51°13.661 2°45.514 17.217797 4.351407 33.446504 15.095879
2004-06-11 08:34:06 51°13.523 2°45.253 17.07353 4.363747 33.564718 15.399264
2004-06-11 08:35:04 51°13.364 2°45.056 16.986622 4.390223 33.949769 15.534101
2004-06-11 08:36:04 51°13.203 2°44.847 16.970055 4.392227 34.006063 15.365554
2004-06-11 08:37:04 51°13.057 2°44.613 16.94541 4.393177 34.027916 15.129589
2004-06-11 08:38:04 51°12.945 2°44.335 16.926169 4.392228 34.03581 14.792494
2004-06-11 08:39:03 51°12.835 2°44.058 16.92655 4.391279 34.038746 14.758785
2004-06-11 08:40:05 51°12.719 2°43.765 16.914241 4.391595 34.045836 14.826204
2004-06-11 08:41:03 51°12.61 2°43.493 16.88509 4.391279 34.056133 14.623947
2004-06-11 08:42:04 51°12.497 2°43.211 16.847585 4.390436 34.076788 14.522819
2004-06-11 08:43:04 51°12.387 2°42.938 16.83827 4.391385 34.110573 14.893623
2004-06-11 08:44:04 51°12.277 2°42.661 16.777644 4.391913 34.136996 14.859913
2004-06-11 08:45:04 51°12.167 2°42.381 16.759077 4.388433 34.141076 14.623947
2004-06-11 08:46:04 51°12.056 2°42.101 16.708352 4.386324 34.149608 14.657657
2004-06-11 08:47:04 51°11.944 2°41.822 16.689384 4.382106 34.157317 14.4554
2004-06-11 08:48:04 51°11.833 2°41.543 16.662515 4.381684 34.163046 14.421691
2004-06-11 08:49:06 51°11.719 2°41.254 16.665614 4.382423 34.17388 14.48911
2004-06-11 08:50:06 51°11.608 2°40.972 16.670963 4.382106 34.175513 14.556529
2004-06-11 08:51:04 51°11.5 2°40.703 16.638693 4.381368 34.175349 14.556529
2004-06-11 08:52:02 51°11.392 2°40.432 16.611719 4.379681 34.182604 14.590238
2004-06-11 08:53:04 51°11.276 2°40.145 16.570281 4.376728 34.186363 14.48911
2004-06-11 08:54:04 51°11.155 2°39.876 16.552934 4.373038 34.186827 14.4554
2004-06-11 08:55:04 51°11.033 2°39.609 16.528435 4.371139 34.186602 14.286853
2004-06-11 08:56:04 51°10.912 2°39.341 16.537751 4.369136 34.182933 14.253144
2004-06-11 08:57:05 51°10.787 2°39.068 16.643619 4.371456 34.18811 14.286853
2004-06-11 08:58:05 51°10.662 2°38.8 16.80773 4.386957 34.164515 14.590238
2004-06-11 08:59:04 51°10.539 2°38.532 16.837507 4.395815 34.16594 14.725076
2004-06-11 09:00:06 51°10.409 2°38.252 16.878488 4.397819 34.161505 14.859913
2004-06-11 09:01:04 51°10.284 2°37.989 16.912465 4.40151 34.157393 15.06217
2004-06-11 09:02:05 51°10.152 2°37.712 16.865748 4.403619 34.165112 15.197007
2004-06-11 09:03:04 51°10.024 2°37.442 16.687093 4.396765 34.1842 15.432973
2004-06-11 09:04:04 51°9.894 2°37.17 16.570069 4.382634 34.22287 14.792494
2004-06-11 09:05:06 51°9.762 2°36.886 16.592384 4.378944 34.218949 14.590238
2004-06-11 09:06:06 51°9.637 2°36.61 16.647951 4.381685 34.208283 14.4554
2004-06-11 09:07:06 51°9.51 2°36.333 16.680811 4.384743 34.20355 14.522819
2004-06-11 09:08:04 51°9.389 2°36.062 16.666208 4.386958 34.205916 14.792494
2004-06-11 09:09:04 51°9.265 2°35.78 16.632747 4.385165 34.215406 14.792494
2004-06-11 09:10:04 51°9.149 2°35.492 16.687984 4.385693 34.213722 14.725076
2004-06-11 09:11:04 51°9.028 2°35.207 16.705764 4.390544 34.22024 14.657657
2004-06-11 09:12:04 51°8.903 2°34.927 16.701139 4.391282 34.223539 14.725076
2004-06-11 09:13:04 51°8.848 2°34.722 16.691549 4.390965 34.227688 14.522819
2004-06-11 09:14:04 51°8.877 2°34.667 16.670624 4.389278 34.223019 14.48911
2004-06-11 09:15:04 51°8.906 2°34.676 16.653641 4.387696 34.229329 14.286853
2004-06-11 09:16:04 51°8.935 2°34.692 16.658651 4.388118 34.227352 14.387982
2004-06-11 09:17:03 51°8.961 2°34.706 16.626885 4.386325 34.22931 14.4554
2004-06-11 09:18:06 51°8.984 2°34.719 16.616647 4.384005 34.229813 14.590238
2004-06-11 09:19:04 51°9.005 2°34.732 16.600501 4.38274 34.230719 14.623947
2004-06-11 09:20:04 51°9.025 2°34.746 16.599226 4.381896 34.229644 14.590238
2004-06-11 09:21:04 51°9.043 2°34.761 16.601988 4.380842 34.224205 14.556529
2004-06-11 09:22:04 51°9.06 2°34.774 16.605388 4.381369 34.228815 14.48911
2004-06-11 09:23:05 51°9.078 2°34.787 16.612101 4.382635 34.229168 14.421691
2004-06-11 09:24:03 51°9.094 2°34.8 16.60883 4.383267 34.230289 14.354272
2004-06-11 09:25:05 51°9.112 2°34.814 16.614778 4.383162 34.232517 14.421691
2004-06-11 09:26:05 51°9.129 2°34.83 16.619154 4.384427 34.235388 14.219435
2004-06-11 09:27:05 51°9.144 2°34.845 16.599226 4.384006 34.234851 14.219435
2004-06-11 09:28:05 51°9.159 2°34.859 16.599821 4.382529 34.237066 14.118306
2004-06-11 09:29:04 51°9.175 2°34.873 16.598206 4.383478 34.237802 14.118306
2004-06-11 09:30:03 51°9.191 2°34.888 16.608447 4.383057 34.238525 14.084597
2004-06-11 09:31:03 51°9.208 2°34.903 16.599396 4.3839 34.237709 14.185725
2004-06-11 09:32:05 51°9.225 2°34.92 16.592257 4.383057 34.244198 14.185725
2004-06-11 09:33:04 51°9.241 2°34.936 16.592852 4.38274 34.241431 14.286853
2004-06-11 09:34:05 51°9.259 2°34.952 16.590472 4.382529 34.242109 14.387982
2004-06-11 09:35:03 51°9.278 2°34.965 16.578783 4.382108 34.240942 14.320563
2004-06-11 09:36:02 51°9.319 2°34.912 16.535794 4.380631 34.245056 14.387982
2004-06-11 09:37:05 51°9.283 2°34.812 16.472814 4.375991 34.252429 14.421691
2004-06-11 09:38:05 51°9.186 2°34.772 16.444497 4.370719 34.256191 14.286853
2004-06-11 09:39:05 51°9.082 2°34.71 16.496651 4.370929 34.243483 14.320563
2004-06-11 09:40:05 51°8.97 2°34.734 16.55659 4.374831 34.238478 14.354272
2004-06-11 09:41:06 51°8.871 2°34.837 16.609849 4.378627 34.226897 14.320563
2004-06-11 09:42:04 51°8.782 2°34.783 16.659161 4.384427 34.215248 14.354272
2004-06-11 09:43:05 51°8.695 2°34.683 16.680896 4.387274 34.221245 14.48911
2004-06-11 09:44:04 51°8.682 2°34.597 16.687347 4.390016 34.229461 14.590238
2004-06-11 09:45:05 51°8.693 2°34.578 16.694689 4.391176 34.233299 14.48911
2004-06-11 09:46:04 51°8.709 2°34.579 16.697872 4.391387 34.23451 14.691366
2004-06-11 09:47:05 51°8.724 2°34.582 16.691167 4.391493 34.233545 14.893623
2004-06-11 09:48:03 51°8.737 2°34.587 16.69384 4.390966 34.23083 15.095879
2004-06-11 09:49:04 51°8.748 2°34.593 16.701945 4.391071 34.234264 15.095879
2004-06-11 09:50:05 51°8.764 2°34.583 16.725194 4.392969 34.233859 14.994751
2004-06-11 09:51:03 51°8.757 2°34.535 16.692822 4.392758 34.23516 14.893623
2004-06-11 09:52:06 51°8.723 2°34.508 16.678264 4.390438 34.23 14.961042
2004-06-11 09:53:05 51°8.694 2°34.469 16.681787 4.389911 34.231055 14.657657
2004-06-11 09:54:03 51°8.672 2°34.416 16.684249 4.389805 34.226992 14.556529
2004-06-11 09:55:05 51°8.646 2°34.358 16.680005 4.389911 34.231055 14.4554
2004-06-11 09:56:03 51°8.619 2°34.304 16.684716 4.389911 34.231684 14.522819
2004-06-11 09:57:05 51°8.591 2°34.245 16.693925 4.390438 34.231257 14.522819
2004-06-11 09:58:05 51°8.566 2°34.186 16.698593 4.391282 34.232333 14.556529
2004-06-11 09:59:05 51°8.54 2°34.132 16.701648 4.391704 34.230987 14.590238
2004-06-11 10:00:06 51°8.514 2°34.081 16.709328 4.392442 34.232401 14.623947
2004-06-11 10:01:03 51°8.49 2°34.035 16.716201 4.392969 34.231975 14.623947
2004-06-11 10:02:04 51°8.466 2°33.985 16.723412 4.393813 34.22803 14.691366
2004-06-11 10:03:06 51°8.444 2°33.931 16.72846 4.394235 34.23108 14.657657
2004-06-11 10:04:04 51°8.426 2°33.877 16.727993 4.394762 34.233166 14.657657
2004-06-11 10:05:04 51°8.41 2°33.818 16.729435 4.394235 34.228569 14.725076
2004-06-11 10:06:06 51°8.394 2°33.754 16.725491 4.394446 34.231035 14.725076
2004-06-11 10:07:04 51°8.378 2°33.696 16.730368 4.394762 34.234421 14.725076
2004-06-11 10:08:04 51°8.359 2°33.636 16.734186 4.394867 34.23283 14.725076
2004-06-11 10:09:06 51°8.339 2°33.574 16.73902 4.3955 34.235207 14.725076
2004-06-11 10:10:05 51°8.317 2°33.518 16.738045 4.395817 34.233571 14.725076
2004-06-11 10:11:03 51°8.293 2°33.464 16.742413 4.395711 34.231397 14.657657
2004-06-11 10:12:05 51°8.267 2°33.406 16.742837 4.396027 34.233527 14.657657
2004-06-11 10:13:04 51°8.243 2°33.351 16.74254 4.396449 34.234694 14.623947
2004-06-11 10:14:04 51°8.22 2°33.3 16.746823 4.396344 34.233774 14.623947
2004-06-11 10:15:06 51°8.198 2°33.247 16.753311 4.396977 34.233642 14.590238
2004-06-11 10:16:04 51°8.179 2°33.198 16.749664 4.397398 34.234808 14.590238
2004-06-11 10:17:06 51°8.158 2°33.145 16.748774 4.397293 34.235144 14.623947
2004-06-11 10:18:04 51°8.14 2°33.096 16.751148 4.397082 34.238325 14.590238
2004-06-11 10:19:06 51°8.12 2°33.042 16.758229 4.397609 34.234137 14.590238
2004-06-11 10:20:06 51°8.1 2°32.99 16.764673 4.398453 34.236469 14.590238
2004-06-11 10:21:04 51°8.083 2°32.938 16.773617 4.399191 34.237256 14.590238
2004-06-11 10:22:06 51°8.064 2°32.88 16.779805 4.400246 34.236409 14.623947
2004-06-11 10:23:05 51°8.047 2°32.825 16.783535 4.400668 34.239456 14.590238
2004-06-11 10:24:05 51°8.029 2°32.769 16.776923 4.400562 34.241045 14.623947
2004-06-11 10:25:05 51°8.01 2°32.714 16.77616 4.400668 34.241963 14.590238
2004-06-11 10:26:05 51°7.99 2°32.659 16.776711 4.400668 34.245726 14.623947
2004-06-11 10:27:04 51°7.971 2°32.605 16.782179 4.400773 34.244136 14.590238
2004-06-11 10:28:05 51°7.952 2°32.547 16.7854 4.401511 34.246803 14.590238
2004-06-11 10:29:05 51°7.933 2°32.491 16.787095 4.402355 34.245999 14.623947
2004-06-11 10:30:05 51°7.913 2°32.434 16.786671 4.402355 34.248507 16.848768
2004-06-11 10:31:06 51°7.892 2°32.376 16.787942 4.402566 34.249089 14.556529
2004-06-11 10:32:06 51°7.872 2°32.317 16.787264 4.40246 34.24629 14.556529
2004-06-11 10:33:06 51°7.852 2°32.248 16.773278 4.40225 34.249469 14.590238
2004-06-11 10:34:04 51°7.832 2°32.178 16.769505 4.400773 34.249153 14.556529
2004-06-11 10:35:06 51°7.81 2°32.1 16.76764 4.400879 34.250072 14.556529
2004-06-11 10:36:06 51°7.789 2°32.025 16.768785 4.400668 34.248862 14.522819
2004-06-11 10:37:04 51°7.758 2°31.976 16.778746 4.400879 34.24819 14.556529
2004-06-11 10:38:03 51°7.724 2°31.96 16.780314 4.401933 34.251731 14.421691
2004-06-11 10:39:03 51°7.687 2°31.974 16.760518 4.401511 34.25182 14.623947
2004-06-11 10:40:05 51°7.675 2°32.07 16.754116 4.399824 34.252178 14.792494
2004-06-11 10:41:05 51°7.705 2°32.135 16.748689 4.399086 34.249511 14.691366
2004-06-11 10:42:03 51°7.733 2°32.172 16.758398 4.399191 34.25043 14.48911
2004-06-11 10:43:03 51°7.766 2°32.209 16.774592 4.400668 34.247607 14.48911
2004-06-11 10:44:05 51°7.804 2°32.281 16.77243 4.400879 34.246936 14.556529
2004-06-11 10:45:06 51°7.824 2°32.364 16.780907 4.401301 34.248728 14.522819
2004-06-11 10:46:06 51°7.843 2°32.444 16.78879 4.401828 34.248931 14.522819
2004-06-11 10:47:06 51°7.857 2°32.523 16.783832 4.402882 34.25059 14.4554
2004-06-11 10:48:06 51°7.866 2°32.598 16.761154 4.402039 34.250768 14.48911
2004-06-11 10:49:05 51°7.874 2°32.67 16.750385 4.400035 34.250878 14.4554
2004-06-11 10:50:06 51°7.882 2°32.744 16.735585 4.398559 34.252448 14.556529
2004-06-11 10:51:06 51°7.892 2°32.816 16.735288 4.397293 34.250836 14.522819
2004-06-11 10:52:04 51°7.907 2°32.879 16.684546 4.396661 34.253484 14.48911
2004-06-11 10:53:06 51°7.929 2°32.943 16.65449 4.392548 34.255951 14.387982
2004-06-11 10:54:06 51°7.955 2°33.003 16.616477 4.389384 34.253502 14.354272
2004-06-11 10:55:04 51°7.982 2°33.059 16.587539 4.384955 34.247556 14.286853
2004-06-11 10:56:06 51°8.011 2°33.117 16.581589 4.382635 34.246183 14.219435
2004-06-11 10:57:04 51°8.036 2°33.173 16.573427 4.381791 34.242589 14.286853
2004-06-11 10:58:04 51°8.059 2°33.233 16.582269 4.380842 34.23618 14.286853
2004-06-11 10:59:06 51°8.079 2°33.298 16.588007 4.38158 34.235701 14.219435
2004-06-11 11:00:06 51°8.094 2°33.364 16.590514 4.381686 34.233471 14.286853
2004-06-11 11:01:06 51°8.109 2°33.43 16.605048 4.382424 34.231734 14.320563
2004-06-11 11:02:06 51°8.128 2°33.493 16.609424 4.382951 34.232563 14.286853
2004-06-11 11:03:06 51°8.148 2°33.554 16.618856 4.383689 34.230827 14.320563
2004-06-11 11:04:06 51°8.171 2°33.612 16.631642 4.384955 34.23118 14.253144
2004-06-11 11:05:06 51°8.195 2°33.669 16.636569 4.386115 34.233761 14.320563
2004-06-11 11:06:06 51°8.219 2°33.725 16.63504 4.386431 34.232748 14.48911
2004-06-11 11:07:06 51°8.242 2°33.781 16.634828 4.385904 34.231289 14.4554
2004-06-11 11:08:06 51°8.265 2°33.837 16.630751 4.385904 34.231918 14.48911
2004-06-11 11:09:06 51°8.286 2°33.894 16.622042 4.385482 34.232639 14.48911
2004-06-11 11:10:04 51°8.306 2°33.95 16.61431 4.384533 34.231272 14.48911
2004-06-11 11:11:06 51°8.328 2°34.01 16.617837 4.384638 34.233453 14.48911
2004-06-11 11:12:04 51°8.347 2°34.065 16.613121 4.384744 34.233115 14.48911
2004-06-11 11:13:06 51°8.369 2°34.123 16.600204 4.383795 34.235527 14.590238
2004-06-11 11:14:04 51°8.392 2°34.173 16.594169 4.382951 34.233823 14.556529
2004-06-11 11:15:05 51°8.419 2°34.224 16.590174 4.382107 34.234639 14.522819
2004-06-11 11:16:06 51°8.456 2°34.284 16.592597 4.382002 34.232456 14.556529
2004-06-11 11:17:04 51°8.494 2°34.341 16.585882 4.381686 34.233471 14.590238
2004-06-11 11:18:06 51°8.534 2°34.404 16.583969 4.381686 34.234732 14.522819
2004-06-11 11:19:06 51°8.574 2°34.462 16.584521 4.381053 34.232981 14.522819
2004-06-11 11:20:06 51°8.61 2°34.497 16.727187 4.38738 34.234115 14.48911
2004-06-11 11:21:06 51°8.639 2°34.51 16.799977 4.398453 34.237724 14.556529
2004-06-11 11:22:06 51°8.666 2°34.512 16.820185 4.404042 34.241888 14.657657
2004-06-11 11:23:06 51°8.693 2°34.505 16.822049 4.405308 34.246637 14.826204
2004-06-11 11:24:06 51°8.719 2°34.492 16.833484 4.40573 34.245297 14.994751
2004-06-11 11:25:06 51°8.743 2°34.474 16.84767 4.407206 34.244993 14.994751
2004-06-11 11:26:06 51°8.766 2°34.451 16.850295 4.408155 34.246989 14.961042
2004-06-11 11:27:06 51°8.788 2°34.425 16.845934 4.408366 34.248197 14.927332
2004-06-11 11:28:04 51°8.806 2°34.395 16.843648 4.407944 34.245781 14.792494
2004-06-11 11:29:06 51°8.825 2°34.361 16.834839 4.407417 34.244324 14.725076
2004-06-11 11:30:06 51°8.84 2°34.324 16.834077 4.40689 34.245997 14.725076
2004-06-11 11:31:06 51°8.854 2°34.285 16.82963 4.406573 34.24575 14.893623
2004-06-11 11:32:06 51°8.866 2°34.241 16.820863 4.405835 34.245589 15.06217
2004-06-11 11:33:06 51°8.874 2°34.175 16.814297 4.405097 34.243549 15.095879
2004-06-11 11:34:06 51°8.826 2°34.079 16.806925 4.404464 34.244933 15.298136
2004-06-11 11:35:06 51°8.744 2°34.152 16.809806 4.40362 34.241976 14.725076
2004-06-11 11:36:06 51°8.741 2°34.377 16.825395 4.404253 34.244977 14.522819
2004-06-11 11:37:04 51°8.758 2°34.658 16.837465 4.404991 34.245763 14.657657
2004-06-11 11:38:04 51°8.779 2°34.972 16.815568 4.404042 34.239383 15.230717
2004-06-11 11:39:06 51°8.797 2°35.299 16.929764 4.404358 34.223358 15.331845
2004-06-11 11:40:06 51°8.84 2°35.484 17.016659 4.416908 34.218721 15.399264
2004-06-11 11:41:06 51°8.884 2°35.564 17.065258 4.423341 34.219692 15.197007
2004-06-11 11:42:06 51°8.907 2°35.629 17.108085 4.427243 34.215558 15.197007
2004-06-11 11:43:06 51°8.917 2°35.698 17.122637 4.429984 34.210721 15.331845
2004-06-11 11:44:04 51°8.929 2°35.765 17.139714 4.431039 34.209293 15.399264
2004-06-11 11:45:06 51°8.943 2°35.832 17.154891 4.432726 34.208376 15.264426
2004-06-11 11:46:04 51°8.955 2°35.895 17.163574 4.433781 34.207572 15.230717
2004-06-11 11:47:06 51°8.967 2°35.961 17.18022 4.434625 34.204949 15.331845
2004-06-11 11:48:06 51°8.981 2°36.026 17.201033 4.436523 34.205241 15.298136
2004-06-11 11:49:06 51°8.995 2°36.09 17.201876 4.438316 34.206481 15.298136
2004-06-11 11:50:04 51°9.01 2°36.151 17.049386 4.433359 34.220042 15.365554
2004-06-11 11:51:06 51°9.03 2°36.213 17.07429 4.426293 34.217905 15.264426
2004-06-11 11:52:06 51°9.052 2°36.27 16.97555 4.423024 34.22255 15.230717
2004-06-11 11:53:06 51°9.075 2°36.327 16.926846 4.416697 34.226864 15.129589
2004-06-11 11:54:06 51°9.096 2°36.385 16.907473 4.413322 34.225022 15.06217
2004-06-11 11:55:03 51°9.113 2°36.442 16.893384 4.411108 34.22327 15.06217
2004-06-11 11:56:06 51°9.131 2°36.506 16.899519 4.410686 34.223353 15.06217
2004-06-11 11:57:04 51°9.148 2°36.565 16.898588 4.411108 34.22327 15.095879
2004-06-11 11:58:04 51°9.166 2°36.625 16.893849 4.410791 34.222396 15.129589
2004-06-11 11:59:06 51°9.186 2°36.685 16.882551 4.409526 34.217648 15.129589
2004-06-11 12:00:06 51°9.207 2°36.743 16.894738 4.409104 34.220853 15.129589
2004-06-11 12:01:05 51°9.227 2°36.799 16.912592 4.41058 34.216194 15.197007
2004-06-11 12:02:06 51°9.249 2°36.858 16.931455 4.412057 34.217157 15.095879
2004-06-11 12:03:02 51°9.269 2°36.912 16.937122 4.413638 34.217788 15.197007
2004-06-11 12:04:06 51°9.292 2°36.973 16.976522 4.41522 34.213434 15.230717
2004-06-11 12:05:04 51°9.312 2°37.03 16.996594 4.417857 34.210758 15.264426
2004-06-11 12:06:03 51°9.332 2°37.088 16.998917 4.4187 34.209355 15.365554
2004-06-11 12:07:04 51°9.353 2°37.147 16.999044 4.418595 34.207197 15.365554
2004-06-11 12:08:06 51°9.373 2°37.207 17.003226 4.4187 34.206866 15.365554
2004-06-11 12:09:04 51°9.392 2°37.264 17.006648 4.419122 34.20741 15.365554
2004-06-11 12:10:06 51°9.412 2°37.324 17.012267 4.419122 34.205544 15.534101
2004-06-11 12:11:06 51°9.43 2°37.384 17.036339 4.420809 34.204612 15.399264
2004-06-11 12:12:06 51°9.447 2°37.445 17.059306 4.422813 34.207666 15.399264
2004-06-11 12:13:06 51°9.464 2°37.516 17.155018 4.426399 34.203293 15.500392
2004-06-11 12:14:06 51°9.475 2°37.596 17.242261 4.436839 34.204258 15.63523
2004-06-11 12:15:05 51°9.472 2°37.679 17.276016 4.442534 34.200209 15.837486
2004-06-11 12:16:06 51°9.449 2°37.758 17.298188 4.445065 34.199792 16.17458
2004-06-11 12:17:06 51°9.41 2°37.82 17.199601 4.446225 34.207933 16.444255
2004-06-11 12:18:06 51°9.37 2°37.848 17.088721 4.433254 34.215411 16.275708
2004-06-11 12:19:06 51°9.323 2°37.869 17.046853 4.426188 34.212644 16.039742
2004-06-11 12:20:06 51°9.297 2°37.971 17.012562 4.422075 34.213085 16.208289
2004-06-11 12:21:06 51°9.297 2°38.053 16.997185 4.420493 34.213689 15.972324
2004-06-11 12:22:06 51°9.295 2°38.129 16.986453 4.419017 34.214587 15.702648
2004-06-11 12:23:06 51°9.299 2°38.2 16.986453 4.418595 34.215289 15.770067
2004-06-11 12:24:06 51°9.304 2°38.268 16.985903 4.418384 34.215328 15.736358
2004-06-11 12:25:04 51°9.31 2°38.332 16.978931 4.418384 34.216574 15.63523
2004-06-11 12:26:06 51°9.316 2°38.398 16.972507 4.41849 34.219979 15.60152
2004-06-11 12:27:06 51°9.327 2°38.459 16.967224 4.417119 34.219304 15.736358
2004-06-11 12:28:06 51°9.34 2°38.518 16.973014 4.416697 34.218138 15.736358
2004-06-11 12:29:06 51°9.355 2°38.575 16.982861 4.417751 34.219184 15.702648
2004-06-11 12:30:06 51°9.37 2°38.634 17.001663 4.419122 34.215501 15.668939
2004-06-11 12:31:04 51°9.383 2°38.691 17.018898 4.420493 34.215556 15.567811
2004-06-11 12:32:06 51°9.397 2°38.753 17.039168 4.422391 34.21396 15.736358
2004-06-11 12:33:06 51°9.41 2°38.816 17.068972 4.423973 34.209008 15.770067
2004-06-11 12:34:05 51°9.423 2°38.879 17.108254 4.426926 34.207233 15.63523
2004-06-11 12:35:06 51°9.435 2°38.943 17.141527 4.430406 34.203824 15.668939
2004-06-11 12:36:06 51°9.447 2°39.006 17.174489 4.432621 34.198792 15.871195
2004-06-11 12:37:05 51°9.461 2°39.067 17.227061 4.435573 34.192718 15.803777
2004-06-11 12:38:06 51°9.478 2°39.128 17.277573 4.440635 34.188788 15.803777
2004-06-11 12:39:06 51°9.497 2°39.186 17.310302 4.444327 34.186032 16.039742
2004-06-11 12:40:06 51°9.515 2°39.244 17.352011 4.447068 34.180051 16.073452
2004-06-11 12:41:06 51°9.535 2°39.302 17.38252 4.450232 34.173409 16.140871
2004-06-11 12:42:06 51°9.553 2°39.362 17.515282 4.452236 34.157438 16.17458
2004-06-11 12:43:06 51°9.567 2°39.423 17.701885 4.457085 34.036405 17.017315
2004-06-11 12:44:06 51°9.578 2°39.488 17.784681 4.459403 33.947643 17.691503
2004-06-11 12:45:06 51°9.588 2°39.553 17.832575 4.460457 33.899891 18.298272
2004-06-11 12:46:06 51°9.598 2°39.618 17.86863 4.460246 33.86199 18.567947
2004-06-11 12:47:06 51°9.612 2°39.68 17.901622 4.458452 33.819743 18.837623
2004-06-11 12:48:06 51°9.628 2°39.741 17.942434 4.456236 33.771597 18.770204
2004-06-11 12:49:05 51°9.646 2°39.799 17.983097 4.4517 33.696725 18.938751
2004-06-11 12:50:06 51°9.667 2°39.858 18.006667 4.448536 33.643737 19.073589
2004-06-11 12:51:04 51°9.686 2°39.914 18.028606 4.446953 33.613121 19.107298
2004-06-11 12:52:06 51°9.708 2°39.977 18.045253 4.447375 33.596515 19.815195
2004-06-11 12:53:06 51°9.728 2°40.04 18.058319 4.45075 33.614368 18.97246
2004-06-11 12:54:06 51°9.744 2°40.109 18.063478 4.454758 33.639935 18.803913
2004-06-11 12:55:06 51°9.753 2°40.188 18.06951 4.458027 33.663412 18.702785
2004-06-11 12:56:06 51°9.744 2°40.268 18.068969 4.462879 33.699068 18.601657
2004-06-11 12:57:06 51°9.714 2°40.335 18.089599 4.467415 33.73383 18.736494
2004-06-11 12:58:04 51°9.675 2°40.377 18.069052 4.475747 33.795325 18.264563
2004-06-11 12:59:06 51°9.633 2°40.394 18.068387 4.481549 33.855701 17.556665
2004-06-11 13:00:06 51°9.552 2°40.336 18.062063 4.482815 33.878952 17.388118
2004-06-11 13:01:06 51°9.496 2°40.095 18.10777 4.478596 33.849232 17.421828
2004-06-11 13:02:06 51°9.433 2°39.809 18.084068 4.464672 33.675034 19.00617
2004-06-11 13:03:04 51°9.372 2°39.524 17.849227 4.454442 33.690754 19.478101
2004-06-11 13:04:04 51°9.326 2°39.283 17.649088 4.449699 33.821614 19.00617
2004-06-11 13:05:03 51°9.324 2°39.126 17.713635 4.445587 33.9024 19.00617
2004-06-11 13:06:06 51°9.348 2°39.045 17.754224 4.445902 33.798932 19.242136
2004-06-11 13:07:06 51°9.372 2°39.007 17.800719 4.448222 33.824089 19.242136
2004-06-11 13:08:06 51°9.391 2°38.977 17.831114 4.451386 33.804718 19.309554
2004-06-11 13:09:06 51°9.404 2°38.954 17.853067 4.452968 33.801956 19.410683
2004-06-11 13:10:06 51°9.414 2°38.937 17.866836 4.453706 33.792034 19.511811
2004-06-11 13:11:06 51°9.422 2°38.922 17.883021 4.455604 33.796765 19.343264
2004-06-11 13:12:05 51°9.429 2°38.911 17.910754 4.456764 33.792233 19.141007
2004-06-11 13:13:06 51°9.435 2°38.899 17.948935 4.458979 33.778104 18.938751
2004-06-11 13:14:06 51°9.449 2°38.88 17.954685 4.462248 33.787883 18.736494
2004-06-11 13:15:06 51°9.466 2°38.854 17.941475 4.463197 33.800712 18.770204
2004-06-11 13:16:04 51°9.482 2°38.822 17.941934 4.460139 33.780167 19.107298
2004-06-11 13:17:06 51°9.501 2°38.789 17.935641 4.461193 33.790304 19.174717
2004-06-11 13:18:06 51°9.518 2°38.753 17.943434 4.460244 33.785247 19.309554
2004-06-11 13:19:06 51°9.534 2°38.716 17.944268 4.462459 33.796248 19.174717
2004-06-11 13:20:06 51°9.55 2°38.679 17.936808 4.463725 33.812363 19.309554
2004-06-11 13:21:03 51°9.565 2°38.643 17.936016 4.467417 33.846061 19.242136
2004-06-11 13:22:05 51°9.579 2°38.599 17.930097 4.467944 33.851731 19.275845
2004-06-11 13:23:06 51°9.6 2°38.542 17.880477 4.469738 33.878334 19.073589
2004-06-11 13:24:05 51°9.678 2°38.512 17.802723 4.477544 34.0042 18.062306
2004-06-11 13:25:05 51°9.766 2°38.729 17.705147 4.475647 34.070319 17.219571
2004-06-11 13:26:05 51°9.853 2°39.025 17.694942 4.469952 34.066662 16.781349
2004-06-11 13:27:05 51°9.934 2°39.331 17.721328 4.465944 34.030648 16.781349
2004-06-11 13:28:05 51°10.007 2°39.644 17.821387 4.470056 34.017233 16.71393
2004-06-11 13:29:03 51°10.077 2°39.95 17.81717 4.476489 34.010928 16.781349
2004-06-11 13:30:05 51°10.153 2°40.279 17.803475 4.471743 33.98565 16.579093
2004-06-11 13:31:05 51°10.235 2°40.591 17.716186 4.46974 33.997597 16.579093
2004-06-11 13:32:05 51°10.326 2°40.895 17.608563 4.461197 34.015634 16.646512
2004-06-11 13:33:05 51°10.41 2°41.201 17.593737 4.452866 34.002168 16.511674
2004-06-11 13:34:05 51°10.492 2°41.506 17.611955 4.449701 33.949635 16.309418
2004-06-11 13:35:05 51°10.577 2°41.811 17.653691 4.45392 33.980203 16.241999
2004-06-11 13:36:05 51°10.659 2°42.122 17.679465 4.452126 33.942466 16.107161
2004-06-11 13:37:03 51°10.741 2°42.416 17.641679 4.449068 33.933321 16.208289
2004-06-11 13:38:05 51°10.84 2°42.725 17.573838 4.445271 33.903331 16.17458
2004-06-11 13:39:05 51°10.926 2°43.035 17.555443 4.420591 33.742163 16.612802
2004-06-11 13:40:05 51°11.013 2°43.346 17.584689 4.414789 33.688408 16.545383
2004-06-11 13:41:05 51°11.086 2°43.66 17.593737 4.413524 33.663156 16.815059
2004-06-11 13:42:05 51°11.161 2°43.971 17.525597 4.411942 33.655671 16.71393
2004-06-11 13:43:05 51°11.233 2°44.284 17.569062 4.408145 33.666604 16.848768
2004-06-11 13:44:05 51°11.306 2°44.6 17.644484 4.409305 33.630163 16.882477
2004-06-11 13:45:05 51°11.381 2°44.911 17.627488 4.41173 33.611818 16.882477
2004-06-11 13:46:05 51°11.451 2°45.217 17.601653 4.39939 33.5318 17.253281
2004-06-11 13:47:05 51°11.533 2°45.515 17.626232 4.393167 33.474566 17.017315
2004-06-11 13:48:05 51°11.624 2°45.814 17.655114 4.391057 33.439867 17.219571
2004-06-11 13:49:05 51°11.711 2°46.115 17.666956 4.393377 33.43755 17.28699
2004-06-11 13:50:05 51°11.793 2°46.418 17.691847 4.394748 33.426569 17.3207
2004-06-11 13:51:05 51°11.873 2°46.721 17.732114 4.395064 33.421518 17.388118
2004-06-11 13:52:05 51°11.953 2°47.024 17.738133 4.399283 33.424653 17.354409
2004-06-11 13:53:05 51°12.035 2°47.328 17.751215 4.398966 33.423154 17.421828
2004-06-11 13:54:06 51°12.119 2°47.636 17.738927 4.395908 33.409648 16.983606
2004-06-11 13:55:05 51°12.197 2°47.936 17.766634 4.38863 33.319915 17.388118
2004-06-11 13:56:05 51°12.283 2°48.233 17.810741 4.398017 33.381229 17.152153
2004-06-11 13:57:05 51°12.383 2°48.522 17.846014 4.403606 33.393079 17.354409
2004-06-11 13:58:05 51°12.482 2°48.816 17.894866 4.415102 33.456167 18.567947
2004-06-11 13:59:05 51°12.583 2°49.112 17.844679 4.396433 33.294433 17.455537
2004-06-11 14:00:02 51°12.678 2°49.389 17.864082 4.385886 33.225736 17.758922
2004-06-11 14:01:05 51°12.786 2°49.694 17.843176 4.383882 33.202281 17.522956
2004-06-11 14:02:05 51°12.883 2°49.985 17.854402 4.378293 33.155532 17.691503
2004-06-11 14:03:05 51°12.981 2°50.279 17.960769 4.375339 33.118781 17.961178
2004-06-11 14:04:05 51°13.08 2°50.576 18.081364 4.367005 32.915296 18.298272
2004-06-11 14:05:04 51°13.177 2°50.871 18.076498 4.365211 32.862513 18.331982
2004-06-11 14:06:05 51°13.28 2°51.172 18.049165 4.334205 32.627009 18.770204
2004-06-11 14:07:05 51°13.378 2°51.462 18.041633 4.318175 32.499072 18.837623
2004-06-11 14:08:05 51°13.476 2°51.758 18.037513 4.307312 32.412891 18.905042
2004-06-11 14:09:05 51°13.564 2°52.061 18.120158 4.284216 32.192139 18.905042
2004-06-11 14:10:05 51°13.664 2°52.357 18.17347 4.277255 32.077806 18.871332
2004-06-11 14:11:05 51°13.76 2°52.654 18.205238 4.277676 32.049232 18.97246
2004-06-11 14:12:04 51°13.853 2°52.948 18.214704 4.279152 32.038525 18.938751
2004-06-11 14:13:03 51°13.949 2°53.236 18.187508 4.285796 32.104219 18.905042
2004-06-11 14:14:05 51°14.049 2°53.541 18.194484 4.299295 32.227358 19.275845
2004-06-11 14:15:05 51°14.146 2°53.837 18.203038 4.297397 32.20355 18.938751
2004-06-11 14:16:05 51°14.257 2°54.117 18.195855 4.290647 32.141986 19.073589
2004-06-11 14:17:05 51°14.346 2°54.408 18.215741 4.279785 32.043815 19.00617
2004-06-11 14:18:05 51°14.421 2°54.707 18.174301 4.261119 31.899552 19.410683
2004-06-11 14:19:05 51°14.379 2°55.022 18.186221 4.256585 31.87228 19.612939
2004-06-11 14:20:05 51°14.255 2°55.283 18.303855 4.193208 31.313996 20.725349
2004-06-11 14:21:05 51°14.117 2°55.427 18.3878 3.943228 29.168934 22.3434
2004-06-11 14:22:05 51°13.991 2°55.516 18.462833 3.832653 28.212229 21.601794
2004-06-11 14:23:05 51°13.869 2°55.605 18.458117 3.786594 27.80536 22.37711
2004-06-11 14:24:05 51°13.753 2°55.701 18.600892 3.723676 27.280574 35.726033
2004-06-11 14:25:03 51°13.683 2°55.826 18.815886 3.540538 25.691821 30.298819
2004-06-11 14:26:05 51°13.639 2°55.952 19.094973 3.031863 21.434299 23.894033
2004-06-11 14:27:08 51°13.611 2°56.044 19.175923 2.967758 20.898341 21.770341
2004-06-11 14:28:09 51°13.597 2°56.088 18.987495 3.04081 21.470734 21.298409
2004-06-11 14:29:09 51°13.593 2°56.096 18.697631 3.390839 24.355388 20.961315
2004-06-11 14:30:09 51°13.595 2°56.101 18.712882 3.571724 25.911765 21.669212
2004-06-11 14:31:09 51°13.596 2°56.097 18.641048 3.526314 25.535213 23.658067